Time;durP1;ratioP1;P1;durP2;ratioP2;P2;SDS_P1;SDS_P2;PMS_P1;PMS_P2;Temp;Humidity;BMP_temperature;BMP_pressure;BME280_temperature;BME280_humidity;BME280_pressure;Samples;Min_cycle;Max_cycle;Signal;HPM_P1;HPM_P2
2021/05/11 00:02:20;;;;;;;8.55;5.00;;;;;;;10.96;67.88;97876.23;1781313;79;22960;-77
2021/05/11 00:04:57;;;;;;;9.85;5.40;;;;;;;10.83;68.08;97889.03;1781296;79;22904;-77
2021/05/11 00:07:34;;;;;;;8.45;5.22;;;;;;;10.72;70.05;97877.92;1804108;79;27970;-76
2021/05/11 00:10:12;;;;;;;10.55;5.45;;;;;;;10.86;68.60;97874.36;1781151;79;22933;-76
2021/05/11 00:12:49;;;;;;;8.95;5.00;;;;;;;10.72;68.75;97876.15;1755263;79;22907;-76
2021/05/11 00:15:30;;;;;;;7.90;5.12;;;;;;;10.67;68.27;97874.95;1754380;80;22973;-76
2021/05/11 00:18:07;;;;;;;6.35;4.30;;;;;;;10.62;68.65;97875.56;1849644;76;22323;-78
2021/05/11 00:20:44;;;;;;;7.78;5.40;;;;;;;10.55;68.46;97880.66;1787246;79;28018;-79
2021/05/11 00:23:22;;;;;;;5.50;5.00;;;;;;;10.67;69.06;97877.60;1781109;79;22925;-77
2021/05/11 00:25:58;;;;;;;7.95;5.20;;;;;;;10.61;69.24;97874.28;1802832;79;28500;-77
2021/05/11 00:28:37;;;;;;;9.70;5.03;;;;;;;10.66;69.16;97874.55;1820690;79;23333;-77
2021/05/11 00:31:14;;;;;;;6.33;5.10;;;;;;;10.51;69.67;97872.39;1804210;79;28450;-76
2021/05/11 00:33:52;;;;;;;9.48;5.10;;;;;;;10.71;68.99;97872.22;1820681;79;22782;-76
2021/05/11 00:36:29;;;;;;;5.92;4.28;;;;;;;10.52;69.31;97874.12;1781354;79;22887;-77
2021/05/11 00:39:06;;;;;;;5.03;4.22;;;;;;;10.42;69.96;97870.84;1820241;77;22791;-76
2021/05/11 00:41:43;;;;;;;8.33;4.85;;;;;;;10.39;69.31;97875.78;1802620;79;28121;-78
2021/05/11 00:44:26;;;;;;;6.30;4.42;;;;;;;10.63;69.34;97868.48;1801344;79;27943;-77
2021/05/11 00:47:06;;;;;;;8.48;4.15;;;;;;;10.78;69.44;97860.48;1819982;79;22808;-76
2021/05/11 00:49:44;;;;;;;5.03;3.98;;;;;;;10.65;70.12;97859.57;1771014;79;22931;-76
2021/05/11 00:52:21;;;;;;;7.37;4.40;;;;;;;10.62;70.57;97858.33;1802515;79;28182;-77
2021/05/11 00:54:59;;;;;;;4.58;3.65;;;;;;;10.80;70.07;97856.02;1820710;79;22786;-77
2021/05/11 00:57:37;;;;;;;6.30;4.30;;;;;;;10.67;70.15;97852.42;1781284;79;22881;-76
2021/05/11 01:00:15;;;;;;;7.22;4.20;;;;;;;10.59;70.35;97860.22;1779922;79;23285;-78
2021/05/11 01:02:52;;;;;;;8.08;4.10;;;;;;;10.47;70.58;97856.17;1781204;79;22933;-77
2021/05/11 01:05:29;;;;;;;6.80;4.33;;;;;;;10.37;70.14;97860.40;1813767;79;20366;-76
2021/05/11 01:08:06;;;;;;;6.42;4.45;;;;;;;10.27;70.06;97847.03;1804157;79;38288;-76
2021/05/11 01:10:43;;;;;;;8.45;4.58;;;;;;;10.39;70.47;97854.58;1765307;79;23333;-75
2021/05/11 01:13:20;;;;;;;7.55;4.72;;;;;;;10.29;70.35;97855.78;1803778;79;28370;-78
2021/05/11 01:15:57;;;;;;;6.00;4.67;;;;;;;10.39;70.28;97859.87;1801133;79;33927;-78
2021/05/11 01:18:35;;;;;;;7.42;5.05;;;;;;;10.46;70.37;97862.39;1803784;79;27715;-76
2021/05/11 01:24:04;;;;;;;8.25;4.60;;;;;;;10.27;70.12;97861.59;1758474;79;22925;-76
2021/05/11 01:26:51;;;;;;;6.65;4.90;;;;;;;10.12;71.51;97863.80;1820879;79;23328;-76
2021/05/11 01:29:48;;;;;;;6.55;4.95;;;;;;;10.00;70.97;97850.91;1808992;77;28024;-77
2021/05/11 01:44:13;;;;;;;6.10;4.30;;;;;;;9.55;71.37;97840.30;1820840;79;22834;-77
2021/05/11 02:22:35;;;;;;;6.25;3.80;;;;;;;8.89;72.35;97835.38;1781442;79;22887;-79
2021/05/11 02:23:49;;;;;;;5.17;4.20;;;;;;;8.74;73.94;97834.01;1781506;79;22886;-77
2021/05/11 02:26:25;;;;;;;8.45;5.00;;;;;;;8.66;72.86;97835.96;1799559;77;27651;-78
2021/05/11 02:29:02;;;;;;;8.40;5.30;;;;;;;8.82;73.63;97837.78;1765960;79;28079;-77
2021/05/11 02:31:38;;;;;;;9.13;4.60;;;;;;;8.94;74.29;97838.80;1818385;79;22347;-78
2021/05/11 02:34:15;;;;;;;7.97;5.20;;;;;;;8.82;74.58;97844.38;1802718;79;27931;-78
2021/05/11 02:36:52;;;;;;;7.25;4.85;;;;;;;8.98;74.48;97839.59;1801998;79;28455;-79
2021/05/11 02:39:29;;;;;;;7.83;4.40;;;;;;;9.13;74.56;97839.62;1802843;79;28453;-77
2021/05/11 02:42:07;;;;;;;8.38;4.78;;;;;;;9.28;74.45;97833.08;1805118;79;27931;-79
2021/05/11 02:44:46;;;;;;;4.90;3.98;;;;;;;9.34;74.35;97825.44;1781330;79;23029;-80
2021/05/11 02:47:23;;;;;;;4.97;3.92;;;;;;;9.19;74.79;97823.62;1780398;79;22898;-79
2021/05/11 02:50:05;;;;;;;9.23;3.98;;;;;;;9.17;75.13;97838.64;1775822;79;22957;-79
2021/05/11 02:52:41;;;;;;;8.23;4.53;;;;;;;9.09;75.40;97826.95;1781312;79;22884;-78
2021/05/11 02:55:20;;;;;;;6.53;4.80;;;;;;;9.05;75.62;97827.08;1802640;79;27948;-77
2021/05/11 02:57:59;;;;;;;6.45;3.72;;;;;;;9.26;74.94;97826.94;1752922;79;23293;-75
2021/05/11 03:00:55;;;;;;;6.40;4.67;;;;;;;9.18;75.14;97832.91;1820523;78;22922;-76
2021/05/11 03:03:32;;;;;;;8.67;5.10;;;;;;;9.13;75.35;97826.41;1763714;79;33023;-77
2021/05/11 03:06:10;;;;;;;5.70;4.42;;;;;;;9.32;74.57;97821.95;1833882;76;28117;-76
2021/05/11 03:08:48;;;;;;;6.22;4.60;;;;;;;9.42;73.85;97826.08;1780339;79;23268;-78
2021/05/11 03:11:25;;;;;;;5.72;4.12;;;;;;;9.26;74.21;97828.27;1781311;79;23255;-77
2021/05/11 03:14:03;;;;;;;6.03;4.90;;;;;;;9.16;73.98;97830.74;1800123;79;28457;-78
2021/05/11 03:17:00;;;;;;;5.28;3.75;;;;;;;9.31;73.41;97834.33;1801222;78;22955;-78
2021/05/11 03:19:38;;;;;;;9.23;4.22;;;;;;;9.13;73.56;97831.69;1765130;79;22938;-79
2021/05/11 03:22:16;;;;;;;9.90;4.45;;;;;;;9.03;74.09;97836.37;1809662;79;22955;-77
2021/05/11 03:24:52;;;;;;;7.92;4.12;;;;;;;8.95;73.88;97835.69;1824924;77;23236;-78
2021/05/11 03:27:29;;;;;;;8.23;5.03;;;;;;;8.86;73.68;97835.48;1802829;79;38399;-77
2021/05/11 03:30:08;;;;;;;8.65;4.85;;;;;;;9.00;73.73;97831.15;1801848;79;27917;-79
2021/05/11 03:32:45;;;;;;;7.65;4.60;;;;;;;9.08;74.32;97830.50;1781326;79;22906;-79
2021/05/11 03:35:22;;;;;;;7.03;5.20;;;;;;;8.88;74.25;97830.16;1802939;79;29294;-77
2021/05/11 03:37:59;;;;;;;11.83;5.50;;;;;;;9.02;74.11;97836.41;1805117;79;39483;-78
2021/05/11 03:40:39;;;;;;;9.73;5.25;;;;;;;9.12;74.29;97832.61;1803846;79;23265;-78
2021/05/11 03:43:21;;;;;;;9.55;5.08;;;;;;;8.95;74.75;97843.62;1820874;76;22230;-77
2021/05/11 03:45:58;;;;;;;7.45;4.70;;;;;;;8.82;75.17;97836.02;1781293;79;22909;-77
2021/05/11 03:48:32;;;;;;;6.55;4.70;;;;;;;8.76;75.02;97830.02;1780700;79;23248;-78
2021/05/11 03:51:08;;;;;;;9.95;5.62;;;;;;;8.73;74.98;97829.63;1805133;79;27674;-78
2021/05/11 03:53:44;;;;;;;6.70;4.50;;;;;;;8.91;74.58;97829.62;1781317;79;22891;-76
2021/05/11 03:56:20;;;;;;;8.25;5.25;;;;;;;8.82;74.90;97821.92;1815737;79;22864;-77
2021/05/11 03:58:56;;;;;;;7.37;5.85;;;;;;;8.80;74.90;97822.42;1764946;79;28128;-77
2021/05/11 04:01:34;;;;;;;7.15;5.62;;;;;;;8.97;74.58;97822.84;1804353;79;27935;-79
2021/05/11 04:04:10;;;;;;;8.58;5.10;;;;;;;9.13;74.55;97815.83;1781253;79;22879;-77
2021/05/11 04:06:46;;;;;;;11.25;5.00;;;;;;;9.04;75.03;97816.95;1770228;79;22882;-76
2021/05/11 04:09:36;;;;;;;7.62;5.50;;;;;;;9.01;75.04;97819.66;1754905;79;38501;-75
2021/05/11 04:17:44;;;;;;;10.25;5.03;;;;;;;9.27;74.50;97818.12;1820878;79;22774;-76
2021/05/11 04:20:19;;;;;;;8.33;5.92;;;;;;;9.23;74.46;97815.99;1780419;79;22891;-79
2021/05/11 04:22:55;;;;;;;10.00;5.78;;;;;;;9.24;74.40;97812.91;1851377;77;23017;-78
2021/05/11 04:25:50;;;;;;;12.50;5.62;;;;;;;9.27;74.66;97811.52;1788646;79;22917;-79
2021/05/11 04:28:28;;;;;;;12.33;8.20;;;;;;;9.28;74.77;97811.92;1740816;79;28323;-77
2021/05/11 04:31:23;;;;;;;10.75;6.08;;;;;;;9.49;74.08;97804.29;1764392;79;22913;-79
2021/05/11 04:33:59;;;;;;;12.00;6.42;;;;;;;9.44;74.29;97807.08;1761159;79;28103;-78
2021/05/11 04:36:35;;;;;;;8.80;6.00;;;;;;;9.69;73.53;97804.17;1809274;77;28088;-79
2021/05/11 04:39:11;;;;;;;9.98;5.47;;;;;;;9.87;72.87;97804.96;1815649;79;22858;-79
2021/05/11 04:41:47;;;;;;;11.63;5.83;;;;;;;9.73;73.50;97813.31;1781425;79;23270;-78
2021/05/11 04:44:27;;;;;;;13.03;6.20;;;;;;;9.70;73.30;97813.39;1803699;79;28535;-78
2021/05/11 04:47:12;;;;;;;12.35;5.62;;;;;;;9.92;72.85;97807.45;1820711;79;22789;-76
2021/05/11 04:49:45;;;;;;;8.78;4.95;;;;;;;9.85;73.00;97817.83;1813742;79;23024;-76
2021/05/11 04:52:24;;;;;;;6.53;4.67;;;;;;;9.85;72.94;97812.06;1780553;79;22896;-77
2021/05/11 04:55:00;;;;;;;9.58;6.00;;;;;;;9.88;72.80;97807.13;1823640;76;28053;-77
2021/05/11 04:57:37;;;;;;;8.48;5.50;;;;;;;10.10;72.44;97814.00;1781298;79;23270;-78
2021/05/11 05:00:15;;;;;;;8.15;5.95;;;;;;;10.08;72.49;97810.98;1802840;79;28441;-77
2021/05/11 05:03:14;;;;;;;14.70;5.95;;;;;;;10.34;71.92;97814.13;1833983;76;27976;-78
2021/05/11 05:05:49;;;;;;;8.75;4.95;;;;;;;10.60;71.37;97808.50;1777633;79;22923;-77
2021/05/11 05:08:25;;;;;;;8.20;5.42;;;;;;;10.55;71.88;97815.73;1781336;79;23096;-77
2021/05/11 05:11:00;;;;;;;6.22;4.75;;;;;;;10.55;72.15;97809.95;1781445;79;22897;-78
2021/05/11 05:13:36;;;;;;;10.75;5.30;;;;;;;10.61;72.15;97808.91;1805295;79;27853;-77
2021/05/11 05:16:12;;;;;;;7.45;5.12;;;;;;;10.91;71.75;97807.47;1800030;79;27952;-78
2021/05/11 05:18:48;;;;;;;7.58;4.45;;;;;;;11.22;71.56;97808.20;1781294;79;22894;-77
2021/05/11 05:21:25;;;;;;;9.17;5.20;;;;;;;11.22;71.63;97808.20;1787859;79;27648;-78
2021/05/11 05:24:13;;;;;;;9.87;5.50;;;;;;;11.59;70.66;97812.16;1804601;79;28343;-76
2021/05/11 05:26:51;;;;;;;8.28;5.60;;;;;;;11.86;69.76;97808.09;1765511;79;28049;-78
2021/05/11 05:29:25;;;;;;;8.83;5.62;;;;;;;12.08;68.11;97801.13;1781219;79;23322;-77
2021/05/11 05:32:02;;;;;;;9.63;6.00;;;;;;;12.02;69.03;97800.86;1761607;79;28235;-78
2021/05/11 05:34:38;;;;;;;12.43;6.10;;;;;;;12.29;67.98;97800.72;1765497;79;28558;-77
2021/05/11 05:37:14;;;;;;;9.83;5.70;;;;;;;12.51;67.07;97810.51;1746060;79;31481;-77
2021/05/11 05:39:56;;;;;;;8.48;5.42;;;;;;;12.72;66.41;97810.10;1780950;79;22908;-78
2021/05/11 05:42:29;;;;;;;7.53;5.05;;;;;;;12.60;66.54;97806.60;1795204;79;23030;-79
2021/05/11 05:45:08;;;;;;;18.42;12.15;;;;;;;12.54;66.77;97801.94;1767143;79;22952;-78
2021/05/11 05:47:50;;;;;;;9.43;5.78;;;;;;;12.53;66.87;97804.66;1806791;79;22878;-79
2021/05/11 05:50:31;;;;;;;9.75;5.40;;;;;;;12.52;66.49;97802.93;1780695;79;22912;-77
2021/05/11 05:53:13;;;;;;;11.80;5.17;;;;;;;12.54;66.30;97806.37;1781257;79;22908;-79
2021/05/11 05:56:05;;;;;;;14.43;6.45;;;;;;;12.59;66.02;97798.23;1781317;79;28045;-79
2021/05/11 05:59:01;;;;;;;15.98;6.20;;;;;;;12.83;65.33;97798.99;1787323;79;27956;-78
2021/05/11 06:01:36;;;;;;;12.07;6.00;;;;;;;13.05;64.39;97796.28;1766393;79;22921;-76
2021/05/11 06:04:14;;;;;;;12.03;7.23;;;;;;;13.03;64.86;97794.17;1766086;79;37211;-75
2021/05/11 06:06:50;;;;;;;11.20;6.33;;;;;;;13.31;63.92;97794.31;1781335;79;22905;-76
2021/05/11 06:09:26;;;;;;;17.20;6.87;;;;;;;13.29;64.27;97788.17;1774193;79;22896;-76
2021/05/11 06:18:06;;;;;;;14.78;7.55;;;;;;;13.52;63.91;97776.13;1805494;78;22870;-78
2021/05/11 06:20:41;;;;;;;15.43;7.20;;;;;;;13.58;63.67;97772.73;1781395;79;22914;-76
2021/05/11 06:23:37;;;;;;;15.65;6.20;;;;;;;13.68;63.25;97759.00;1814389;78;22926;-76
2021/05/11 06:26:13;;;;;;;13.83;7.50;;;;;;;13.76;62.91;97767.51;1766107;79;28086;-76
2021/05/11 06:28:49;;;;;;;13.32;5.97;;;;;;;13.99;62.28;97762.42;1775496;79;23405;-78
2021/05/11 06:31:25;;;;;;;8.93;6.35;;;;;;;14.01;62.53;97769.02;1781344;79;22900;-77
2021/05/11 06:34:03;;;;;;;14.95;6.87;;;;;;;14.06;61.99;97759.00;1766014;79;28233;-77
2021/05/11 06:36:39;;;;;;;13.00;5.85;;;;;;;14.33;61.24;97761.27;1818736;79;23027;-77
2021/05/11 06:39:17;;;;;;;15.38;6.17;;;;;;;14.35;61.44;97753.20;1775076;79;23266;-77
2021/05/11 06:41:56;;;;;;;11.25;6.60;;;;;;;14.43;59.81;97759.02;1765147;79;28587;-77
2021/05/11 06:55:18;;;;;;;12.23;5.87;;;;;;;15.02;58.07;97757.91;1802806;79;23065;-74
2021/05/11 06:58:05;;;;;;;12.03;5.87;;;;;;;15.10;58.55;97751.72;1825262;77;22882;-74
2021/05/11 07:00:43;;;;;;;9.28;5.87;;;;;;;15.17;57.58;97758.45;1770336;79;22955;-74
2021/05/11 07:03:19;;;;;;;9.35;5.90;;;;;;;15.24;57.72;97754.98;1816048;77;22933;-73
2021/05/11 07:05:56;;;;;;;11.00;6.97;;;;;;;15.33;58.17;97760.80;1789941;79;28044;-74
2021/05/11 07:08:48;;;;;;;10.40;6.58;;;;;;;15.58;57.63;97756.35;1800401;78;23354;-73
2021/05/11 07:11:28;;;;;;;11.12;7.30;;;;;;;15.63;57.94;97754.75;1797056;79;23517;-73
2021/05/11 07:14:00;;;;;;;11.75;6.70;;;;;;;15.69;57.53;97747.27;1811288;77;22853;-73
2021/05/11 07:16:36;;;;;;;12.47;7.47;;;;;;;15.80;57.95;97739.14;1737093;79;28472;-73
2021/05/11 07:19:12;;;;;;;15.35;7.60;;;;;;;16.05;57.10;97741.81;1780584;79;22910;-74
2021/05/11 07:21:48;;;;;;;13.27;7.60;;;;;;;16.06;56.94;97743.06;1766036;79;32962;-72
2021/05/11 07:24:28;;;;;;;13.30;7.85;;;;;;;16.34;56.22;97740.64;1757219;79;22929;-74
2021/05/11 07:29:50;;;;;;;13.40;7.40;;;;;;;16.38;56.76;97731.95;1772348;79;23018;-74
2021/05/11 07:32:22;;;;;;;16.73;7.70;;;;;;;16.45;56.97;97736.02;1844144;77;22897;-74
2021/05/11 07:34:58;;;;;;;15.78;8.33;;;;;;;16.49;57.10;97727.70;1793031;79;28137;-74
2021/05/11 07:37:34;;;;;;;20.15;7.35;;;;;;;16.74;56.88;97724.92;1803397;79;22889;-74
2021/05/11 07:40:13;;;;;;;12.60;8.20;;;;;;;16.78;57.23;97726.09;1805972;77;27999;-73
2021/05/11 07:42:49;;;;;;;11.68;7.37;;;;;;;17.04;56.93;97721.02;1767122;79;22904;-75
2021/05/11 07:45:32;;;;;;;14.28;7.83;;;;;;;17.00;57.22;97717.64;1798203;79;28570;-74
2021/05/11 07:48:31;;;;;;;11.30;7.65;;;;;;;17.25;56.81;97714.83;1779874;79;22887;-74
2021/05/11 08:03:14;;;;;;;9.10;6.87;;;;;;;17.54;57.19;97700.11;1781279;79;22899;-76
2021/05/11 08:06:09;;;;;;;12.33;7.25;;;;;;;17.61;57.30;97700.59;1820875;79;23181;-75
2021/05/11 08:16:59;;;;;;;10.48;5.85;;;;;;;18.12;56.42;97688.45;1808108;79;22844;-77
2021/05/11 08:22:44;;;;;;;8.30;6.28;;;;;;;18.32;56.96;97688.48;1781095;79;22944;-79
2021/05/11 08:28:14;;;;;;;12.43;6.95;;;;;;;18.56;56.02;97690.49;1815569;79;22857;-77
2021/05/11 08:30:50;;;;;;;12.28;6.45;;;;;;;18.63;55.92;97676.19;1768943;79;22904;-77
2021/05/11 08:33:30;;;;;;;11.03;6.70;;;;;;;18.73;55.68;97680.80;1760384;79;22981;-79
2021/05/11 08:36:26;;;;;;;13.98;6.55;;;;;;;18.85;55.11;97677.75;1851273;77;23014;-77
2021/05/11 08:39:04;;;;;;;12.20;5.75;;;;;;;18.94;54.46;97681.63;1826820;77;22775;-77
2021/05/11 08:41:59;;;;;;;11.28;5.25;;;;;;;19.09;53.08;97671.69;1793452;79;23049;-78
2021/05/11 08:44:38;;;;;;;7.50;4.97;;;;;;;19.24;53.97;97670.23;1823577;77;22697;-78
2021/05/11 08:47:56;;;;;;;10.88;5.10;;;;;;;19.39;52.92;97668.30;1767433;79;23455;-76
2021/05/11 08:50:42;;;;;;;8.55;5.12;;;;;;;19.47;51.71;97660.53;1819522;77;22796;-76
2021/05/11 09:05:14;;;;;;;11.95;3.92;;;;;;;20.20;49.75;97645.48;1803653;77;23273;-77
2021/05/11 09:08:09;;;;;;;6.10;3.75;;;;;;;20.35;49.20;97643.48;1805905;79;22901;-77
2021/05/11 09:28:50;;;;;;;7.45;4.10;;;;;;;21.27;45.56;97633.33;1784375;79;28085;-77
2021/05/11 09:56:47;;;;;;;9.75;4.40;;;;;;;22.38;40.83;97580.72;1849088;77;22832;-78
2021/05/11 10:48:38;;;;;;;5.97;4.35;;;;;;;29.23;27.59;97527.27;1780410;79;23038;-80
2021/05/11 10:51:25;;;;;;;8.18;5.40;;;;;;;30.33;23.63;97528.69;1819017;79;22903;-81
2021/05/11 10:54:09;;;;;;;7.20;4.25;;;;;;;31.11;22.56;97516.67;1819942;77;22807;-80
2021/05/11 10:56:47;;;;;;;2.80;2.37;;;;;;;31.73;23.67;97526.00;1819568;78;22806;-79
2021/05/11 11:02:27;;;;;;;6.72;4.28;;;;;;;33.39;22.62;97516.33;1800988;79;28094;-80
2021/05/11 11:05:03;;;;;;;11.18;6.97;;;;;;;34.46;18.30;97513.53;1824274;77;22667;-78
2021/05/11 11:07:42;;;;;;;9.65;6.50;;;;;;;34.83;19.40;97513.11;1820038;79;22839;-78
2021/05/11 11:10:19;;;;;;;10.58;6.92;;;;;;;35.13;20.11;97507.69;1769219;79;22922;-74
2021/05/11 11:12:55;;;;;;;10.70;7.58;;;;;;;35.39;19.32;97499.87;1784477;79;28065;-75
2021/05/11 11:15:31;;;;;;;3.42;2.85;;;;;;;35.99;16.60;97496.48;1759060;79;28067;-76
2021/05/11 11:18:07;;;;;;;6.08;4.92;;;;;;;36.62;16.96;97491.17;1804798;79;27710;-77
2021/05/11 11:20:45;;;;;;;8.20;6.10;;;;;;;37.33;15.89;97489.52;1795406;79;38422;-76
2021/05/11 11:23:34;;;;;;;5.22;4.37;;;;;;;37.76;14.25;97489.08;1814214;77;22834;-76
2021/05/11 11:26:13;;;;;;;6.87;3.80;;;;;;;37.36;14.47;97490.97;1766813;79;22905;-77
2021/05/11 11:28:48;;;;;;;4.35;3.37;;;;;;;37.47;15.89;97479.13;1821320;77;22958;-77
2021/05/11 11:31:27;;;;;;;7.50;4.80;;;;;;;37.50;16.48;97480.05;1781470;79;28098;-76
2021/05/11 11:34:24;;;;;;;5.65;2.92;;;;;;;38.34;14.96;97488.66;1814655;79;22900;-77
2021/05/11 11:37:10;;;;;;;4.58;2.55;;;;;;;38.16;13.30;97480.73;1793718;79;22159;-76
2021/05/11 11:39:52;;;;;;;3.65;2.92;;;;;;;38.05;14.71;97482.91;1767706;79;22959;-76
2021/05/11 11:42:37;;;;;;;2.30;1.92;;;;;;;38.19;14.42;97473.05;1815796;77;22915;-77
2021/05/11 11:45:26;;;;;;;3.25;2.40;;;;;;;38.34;13.87;97471.20;1767807;79;22913;-76
2021/05/11 11:48:04;;;;;;;4.65;2.00;;;;;;;38.27;13.72;97475.48;1804789;79;23273;-77
2021/05/11 11:50:39;;;;;;;4.97;2.50;;;;;;;38.15;13.51;97467.98;1783678;79;28134;-76
2021/05/11 11:53:19;;;;;;;2.50;2.30;;;;;;;38.70;13.23;97461.03;1797575;79;22556;-78
2021/05/11 11:58:41;;;;;;;3.62;1.90;;;;;;;38.90;13.28;97459.25;1799891;79;23120;-75
2021/05/11 12:01:17;;;;;;;4.53;2.55;;;;;;;38.78;13.81;97448.73;1753705;78;28197;-75
2021/05/11 12:03:55;;;;;;;3.72;2.00;;;;;;;39.35;13.01;97459.69;1810902;77;27972;-76
2021/05/11 12:06:37;;;;;;;2.75;2.00;;;;;;;39.60;12.46;97446.89;1767669;79;22937;-76
2021/05/11 12:09:33;;;;;;;8.55;2.15;;;;;;;39.75;12.14;97434.97;1800988;79;22944;-76
2021/05/11 12:12:10;;;;;;;3.60;1.80;;;;;;;39.75;12.86;97439.13;1809948;77;28375;-76
2021/05/11 12:14:46;;;;;;;4.50;2.00;;;;;;;39.97;11.85;97433.16;1829141;77;23054;-76
2021/05/11 12:17:33;;;;;;;3.92;2.17;;;;;;;39.98;12.41;97429.28;1754963;79;28081;-76
2021/05/11 12:20:24;;;;;;;4.87;2.20;;;;;;;39.92;11.88;97424.72;1790092;79;30204;-78
2021/05/11 12:23:12;;;;;;;3.02;1.90;;;;;;;39.96;12.60;97430.63;1767232;77;23951;-76
2021/05/11 12:26:02;;;;;;;2.50;1.95;;;;;;;39.75;12.67;97430.80;1767289;79;23406;-75
2021/05/11 12:28:44;;;;;;;3.22;1.50;;;;;;;39.59;12.58;97428.58;1768243;79;23267;-76
2021/05/11 12:31:47;;;;;;;2.95;1.50;;;;;;;39.46;12.21;97419.98;1792507;78;23034;-76
2021/05/11 12:34:25;;;;;;;3.77;1.50;;;;;;;39.59;11.85;97415.24;1826517;77;23374;-76
2021/05/11 12:37:01;;;;;;;4.45;1.92;;;;;;;39.21;12.52;97413.38;1768132;79;23313;-76
2021/05/11 12:39:57;;;;;;;2.67;1.65;;;;;;;39.00;11.85;97408.78;1799048;77;23246;-77
2021/05/11 12:42:39;;;;;;;2.52;2.08;;;;;;;39.10;12.77;97408.73;1816254;77;38538;-76
2021/05/11 12:45:15;;;;;;;3.70;1.80;;;;;;;39.58;11.56;97408.87;1829466;77;22900;-76
2021/05/11 12:48:00;;;;;;;4.72;1.85;;;;;;;39.42;11.61;97407.70;1818441;77;28150;-74
2021/05/11 12:50:43;;;;;;;1.87;1.62;;;;;;;39.71;11.41;97406.87;1813027;79;22859;-74
2021/05/11 13:21:40;;;;;;;1.65;1.55;;;;;;;39.08;11.58;97368.27;1800254;77;23244;-73
2021/05/11 13:27:37;;;;;;;3.45;2.72;;;;;;;39.65;11.12;97361.59;1799301;79;22655;-73
2021/05/11 13:30:35;;;;;;;1.90;1.80;;;;;;;39.59;12.04;97363.42;1771066;79;23430;-73
2021/05/11 13:36:01;;;;;;;4.47;1.80;;;;;;;39.16;11.42;97346.78;1812196;79;22982;-73
2021/05/11 13:38:57;;;;;;;4.33;1.60;;;;;;;39.12;11.84;97342.82;1780394;79;23270;-74
2021/05/11 13:41:33;;;;;;;2.65;1.57;;;;;;;38.98;11.92;97348.64;1765240;79;28062;-74
2021/05/11 13:44:09;;;;;;;3.10;1.60;;;;;;;39.40;10.63;97347.53;1832949;76;27946;-74
2021/05/11 13:46:45;;;;;;;2.72;1.57;;;;;;;39.33;10.69;97339.37;1770714;79;28538;-74
2021/05/11 13:49:22;;;;;;;2.72;1.60;;;;;;;39.56;10.65;97341.73;1796464;79;28418;-75
2021/05/11 13:51:57;;;;;;;2.70;1.72;;;;;;;39.79;10.44;97341.83;1780465;79;23330;-76
2021/05/11 13:54:33;;;;;;;2.58;1.60;;;;;;;39.42;10.56;97334.25;1779829;79;22897;-75
2021/05/11 14:05:26;;;;;;;2.70;1.82;;;;;;;40.09;10.00;97324.88;1773676;79;22929;-74
2021/05/11 14:08:03;;;;;;;2.40;1.70;;;;;;;39.71;10.02;97315.36;1786449;79;28006;-75
2021/05/11 14:10:41;;;;;;;1.82;1.60;;;;;;;39.74;9.88;97313.48;1790865;79;27942;-74
2021/05/11 14:13:17;;;;;;;1.98;1.50;;;;;;;39.55;9.54;97315.66;1802231;79;22977;-74
2021/05/11 14:15:53;;;;;;;3.45;1.70;;;;;;;39.33;9.95;97318.58;1791190;77;28054;-74
2021/05/11 14:18:30;;;;;;;1.95;1.80;;;;;;;39.57;8.85;97308.78;1805560;77;28170;-74
2021/05/11 14:21:12;;;;;;;3.52;1.50;;;;;;;39.39;9.22;97308.97;1800003;79;23038;-74
2021/05/11 14:23:48;;;;;;;3.08;1.62;;;;;;;38.99;10.09;97300.45;1812472;77;28006;-74
2021/05/11 14:26:45;;;;;;;2.80;1.60;;;;;;;39.06;9.27;97300.34;1753455;79;28187;-76
2021/05/11 14:29:22;;;;;;;1.47;1.30;;;;;;;39.23;9.54;97295.37;1823937;77;22469;-74
2021/05/11 14:31:58;;;;;;;2.98;1.70;;;;;;;38.84;10.38;97298.22;1788595;77;28175;-74
2021/05/11 14:34:55;;;;;;;2.10;1.30;;;;;;;39.13;10.03;97298.78;1768073;79;23061;-72
2021/05/11 14:37:34;;;;;;;4.90;1.67;;;;;;;38.78;9.92;97296.44;1786730;77;28225;-73
2021/05/11 14:40:14;;;;;;;1.92;1.70;;;;;;;38.59;10.29;97297.17;1829501;77;22992;-73
2021/05/11 14:42:53;;;;;;;2.20;1.52;;;;;;;38.02;10.56;97293.38;1770749;79;23046;-74
2021/05/11 14:45:30;;;;;;;3.12;1.40;;;;;;;37.75;10.94;97288.34;1798742;79;22886;-74
2021/05/11 14:48:07;;;;;;;7.35;1.60;;;;;;;37.78;10.99;97287.02;1802287;79;22994;-74
2021/05/11 14:51:06;;;;;;;4.17;2.00;;;;;;;37.76;11.04;97290.02;1791488;79;33069;-74
2021/05/11 14:53:42;;;;;;;83.62;24.27;;;;;;;37.79;10.75;97277.63;1805450;79;22775;-73
2021/05/11 14:56:18;;;;;;;6.90;3.20;;;;;;;37.38;11.39;97283.80;1763203;79;28254;-71
2021/05/11 14:58:55;;;;;;;5.55;2.20;;;;;;;37.86;10.59;97282.48;1765308;79;28059;-69
2021/05/11 15:01:31;;;;;;;21.15;4.97;;;;;;;37.99;11.39;97272.28;1766161;79;28105;-71
2021/05/11 15:04:07;;;;;;;5.75;2.15;;;;;;;38.06;11.27;97272.98;1800144;79;28018;-73
2021/05/11 15:06:43;;;;;;;3.52;1.75;;;;;;;37.99;11.25;97268.95;1805543;77;27654;-70
2021/05/11 15:09:20;;;;;;;7.08;1.98;;;;;;;38.05;11.14;97266.34;1741670;79;28269;-72
2021/05/11 15:11:56;;;;;;;3.77;1.70;;;;;;;38.10;11.44;97260.95;1802668;79;28089;-72
2021/05/11 15:14:32;;;;;;;3.85;2.05;;;;;;;38.13;11.61;97259.06;1766228;79;28064;-72
2021/05/11 15:17:58;;;;;;;2.95;2.40;;;;;;;38.16;11.88;97249.73;1772548;79;22923;-71
2021/05/11 15:19:45;;;;;;;4.85;1.92;;;;;;;37.85;12.34;97259.25;1797069;77;22918;-71
2021/05/11 15:22:23;;;;;;;4.37;2.20;;;;;;;37.41;12.77;97256.77;1825519;77;27911;-72
2021/05/11 15:24:59;;;;;;;3.45;1.90;;;;;;;37.48;12.40;97251.42;1780876;79;22873;-75
2021/05/11 15:27:36;;;;;;;2.72;2.00;;;;;;;37.00;12.87;97254.59;1833830;77;28028;-74
2021/05/11 15:30:35;;;;;;;6.70;2.17;;;;;;;36.58;12.82;97245.69;1764876;79;28071;-74
2021/05/11 15:33:11;;;;;;;7.30;2.20;;;;;;;36.39;13.18;97239.33;1781172;79;22890;-74
2021/05/11 15:35:47;;;;;;;5.62;2.20;;;;;;;35.75;13.57;97242.66;1802807;79;28280;-73
2021/05/11 15:38:28;;;;;;;6.10;2.20;;;;;;;35.41;13.61;97235.20;1804683;79;28043;-74
2021/05/11 15:41:04;;;;;;;5.85;2.60;;;;;;;34.60;14.77;97237.91;1820668;79;22850;-73
2021/05/11 15:43:40;;;;;;;4.35;1.98;;;;;;;33.71;15.10;97235.59;1805189;79;27681;-73
2021/05/11 15:46:16;;;;;;;4.97;2.20;;;;;;;33.28;15.95;97233.56;1820747;79;22922;-74
2021/05/11 15:48:52;;;;;;;3.10;2.00;;;;;;;32.31;16.31;97233.67;1765492;79;28556;-73
2021/05/11 15:51:30;;;;;;;2.45;2.00;;;;;;;31.89;16.55;97233.67;1780709;79;23267;-73
2021/05/11 15:54:06;;;;;;;3.08;2.10;;;;;;;31.15;17.45;97237.48;1766043;79;28022;-73
2021/05/11 15:56:43;;;;;;;4.75;2.10;;;;;;;30.93;18.02;97228.43;1765859;79;28023;-73
2021/05/11 15:59:19;;;;;;;2.92;2.30;;;;;;;30.54;18.42;97226.39;1780592;79;22877;-74
2021/05/11 16:01:55;;;;;;;2.10;1.80;;;;;;;29.92;18.58;97226.63;1813637;79;22898;-73
2021/05/11 16:04:31;;;;;;;4.58;2.22;;;;;;;29.51;19.03;97226.53;1766174;79;28103;-73
2021/05/11 16:07:08;;;;;;;4.58;1.85;;;;;;;29.40;19.66;97221.50;1781221;79;22903;-73
2021/05/11 16:09:50;;;;;;;3.05;1.95;;;;;;;28.80;19.97;97225.70;1814753;79;22796;-74
2021/05/11 16:12:26;;;;;;;4.35;1.98;;;;;;;28.41;20.43;97226.63;1813752;79;23009;-73
2021/05/11 16:15:22;;;;;;;4.35;2.25;;;;;;;28.05;20.65;97225.21;1818846;79;22901;-73
2021/05/11 16:18:19;;;;;;;2.62;1.82;;;;;;;27.75;20.98;97215.44;1780614;79;22901;-74
2021/05/11 16:21:01;;;;;;;5.08;1.90;;;;;;;27.49;21.27;97224.13;1824893;77;22870;-73
2021/05/11 16:23:37;;;;;;;4.25;2.08;;;;;;;27.28;21.43;97220.61;1766142;79;28137;-73
2021/05/11 16:26:13;;;;;;;3.77;2.10;;;;;;;27.34;21.83;97217.20;1798340;79;28111;-73
2021/05/11 16:28:49;;;;;;;5.65;1.90;;;;;;;27.35;21.88;97218.89;1780542;79;23016;-73
2021/05/11 16:31:26;;;;;;;5.97;2.30;;;;;;;27.02;22.10;97220.25;1766239;79;28063;-73
2021/05/11 16:34:03;;;;;;;5.33;2.10;;;;;;;27.05;22.32;97216.34;1813770;79;22843;-73
2021/05/11 16:36:42;;;;;;;2.50;2.00;;;;;;;26.73;22.56;97222.41;1813565;79;23001;-73
2021/05/11 16:39:18;;;;;;;2.90;2.60;;;;;;;26.50;22.94;97216.77;1814827;79;23010;-73
2021/05/11 16:41:53;;;;;;;6.92;2.15;;;;;;;26.29;24.35;97221.30;1820849;79;22962;-73
2021/05/11 16:44:29;;;;;;;3.72;2.10;;;;;;;26.09;23.65;97218.81;1820870;79;22943;-72
2021/05/11 16:47:06;;;;;;;3.52;1.98;;;;;;;25.93;23.61;97216.38;1834002;76;27883;-73